Home > Products > Valid Products > MTR

000
SAUS44 KLCH 021154
MTRP92
METAR KP92 021153Z AUTO 13003KT 27/26 A2994 RMK AO1 SLP136 P0001
60002 70010 T02720261 10278 20272 53011





000
SAUS44 KLCH 021054
MTRP92
METAR KP92 021053Z AUTO 00000KT 28/26 A2993 RMK AO1 SLP134 T02780261





000
SAUS44 KLCH 020955
MTRP92
METAR KP92 020953Z AUTO VRB03KT 28/26 A2991 RMK AO1 SLP127 T02780261





000
SAUS44 KLCH 020854
MTRP92
METAR KP92 020853Z AUTO 13003KT 27/26 A2990 RMK AO1 SLP126 P0001
60001 T02720261 55001





000
SAUS44 KLCH 020755
MTRP92
METAR KP92 020753Z AUTO 12004KT 27/26 A2990 RMK AO1 SLP125 T02720261





000
SAUS44 KLCH 020655
MTRP92
METAR KP92 020653Z AUTO 10003KT 28/26 A2990 RMK AO1 SLP126 T02780261





000
SAUS44 KLCH 020554
MTRP92
METAR KP92 020553Z AUTO 13004KT 28/26 A2991 RMK AO1 SLP127 P0001
60003 T02780256 10278 20272 403000256 50001





000
SAUS44 KLCH 020455
MTRP92
METAR KP92 020453Z AUTO 13003KT 27/26 A2991 RMK AO1 SLP128 T02720256





000
SAUS44 KLCH 020355
MTRP92
METAR KP92 020353Z AUTO 13003KT 28/26 A2992 RMK AO1 SLP130 P0001
T02780256





000
SAUS44 KLCH 020255
MTRP92
METAR KP92 020253Z AUTO VRB03KT 28/26 A2990 RMK AO1 SLP126 60001
T02780261 51011





000
SAUS44 KLCH 020155
MTRP92
METAR KP92 020153Z AUTO 13005KT 28/26 A2990 RMK AO1 SLP126 T02780256





000
SAUS44 KLCH 020055
MTRP92
METAR KP92 020053Z AUTO 13005KT 28/26 A2988 RMK AO1 SLP119 P0001
T02780256





000
SAUS44 KLCH 012354
MTRP92
METAR KP92 012353Z AUTO 00000KT 27/24 A2987 RMK AO1 SLP115 60002
T02720244 10300 20272 53004





000
SAUS44 KLCH 012254
MTRP92
METAR KP92 012253Z AUTO 14003KT 29/23 A2986 RMK AO1 SLP112 P0001
T02890228





000
SAUS44 KLCH 012155
MTRP92
METAR KP92 012153Z AUTO VRB04KT 28/23 A2985 RMK AO1 SLP108 T02780233





000
SAUS44 KLCH 012055
MTRP92
METAR KP92 012053Z AUTO VRB04KT 30/26 A2986 RMK AO1 SLP111 60001
T03000261 55008





000
SAUS44 KLCH 011955
MTRP92
METAR KP92 011953Z AUTO VRB04KT 29/26 A2986 RMK AO1 SLP110 P0001
T02940256





000
SAUS44 KLCH 011855
MTRP92
METAR KP92 011853Z AUTO VRB05KT 30/26 A2987 RMK AO1 SLP115 T03000256





000
SAUS44 KLCH 011754
MTRP92
METAR KP92 011753Z AUTO 14007KT 29/26 A2989 RMK AO1 SLP120 P0001
60003 T02940256 10294 20261 58010





000
SAUS44 KLCH 011654
MTRP92
METAR KP92 011653Z AUTO VRB03KT 27/26 A2991 RMK AO1 SLP127 T02720256





000
SAUS44 KLCH 011555
MTRP92
METAR KP92 011553Z AUTO VRB03KT 27/25 A2993 RMK AO1 SLP133 P0001
T02670250





000
SAUS44 KLCH 011455
MTRP92
METAR KP92 011453Z AUTO VRB05KT 27/24 A2992 RMK AO1 SLP130 60001
T02670244 51021





000
SAUS44 KLCH 011355
MTRP92
METAR KP92 011353Z AUTO 00000KT 27/25 A2990 RMK AO1 SLP125 P0001
T02670250





000
SAUS44 KLCH 011254
MTRP92
METAR KP92 011253Z AUTO 00000KT 26/24 A2987 RMK AO1 SLP115 T02610244





000
SAUS44 KLCH 011154
MTRP92
METAR KP92 011153Z AUTO VRB03KT 26/24 A2985 RMK AO1 SLP109 60002
70008 T02610244 10261 20256 51005





000
SAUS44 KLCH 011055
MTRP92
METAR KP92 011053Z AUTO 00000KT 26/24 A2985 RMK AO1 SLP108 P0001
T02560244





000
SAUS44 KLCH 010955
MTRP92
METAR KP92 010953Z AUTO 00000KT 26/24 A2985 RMK AO1 SLP106 T02560244





000
SAUS44 KLCH 010855
MTRP92
METAR KP92 010853Z AUTO VRB03KT 26/24 A2984 RMK AO1 SLP104 P0001
60001 T02610244 58003





000
SAUS44 KLCH 010754
MTRP92
METAR KP92 010753Z AUTO 00000KT 26/24 A2985 RMK AO1 SLP106 T02610244





000
SAUS44 KLCH 010654
MTRP92
METAR KP92 010653Z AUTO 00000KT 26/24 A2985 RMK AO1 SLP108 T02610244





000
SAUS44 KLCH 010554
MTRP92
METAR KP92 010553Z AUTO 00000KT 26/24 A2985 RMK AO1 SLP107 P0001
60002 T02610244 10283 20261 403170239





000
SAUS44 KLCH 010455
MTRP92
METAR KP92 010453Z AUTO 00000KT 26/24 A2985 RMK AO1 SLP107 T02610244





000
SAUS44 KLCH 010354
MTRP92
METAR KP92 010353Z AUTO 00000KT 27/24 A2985 RMK AO1 SLP108 T02670244





000
SAUS44 KLCH 010254
MTRP92
METAR KP92 010253Z AUTO 12003KT 27/24 A2985 RMK AO1 SLP108 P0001
60001 T02670244 52009





000
SAUS44 KLCH 010154
MTRP92
METAR KP92 010153Z AUTO 00000KT 27/24 A2984 RMK AO1 SLP105 T02720244





000
SAUS44 KLCH 010055
MTRP92
METAR KP92 010053Z AUTO 00000KT 28/24 A2983 RMK AO1 SLP101 T02780239





000
SAUS44 KLCH 302355
MTRP92
METAR KP92 302353Z AUTO 00000KT 28/24 A2982 RMK AO1 SLP099 P0001
60003 T02830239 10317 20283 55000





000
SAUS44 KLCH 302255
MTRP92
METAR KP92 302253Z AUTO VRB03KT 29/24 A2982 RMK AO1 SLP097 T02940239





000
SAUS44 KLCH 302154
MTRP92
METAR KP92 302153Z AUTO VRB04KT 30/24 A2982 RMK AO1 SLP096 P0001
T03000244





000
SAUS44 KLCH 302055
MTRP92
METAR KP92 302053Z AUTO 00000KT 31/23 A2983 RMK AO1 SLP099 60001
T03110233 56017





000
SAUS44 KLCH 301954
MTRP92
METAR KP92 301953Z AUTO VRB03KT 31/23 A2983 RMK AO1 SLP101 P0001
T03110233





000
SAUS44 KLCH 301854
MTRP92
METAR KP92 301853Z AUTO VRB04KT 32/24 A2985 RMK AO1 SLP109 T03170239





000
SAUS44 KLCH 301754
MTRP92
METAR KP92 301753Z AUTO VRB04KT 31/23 A2988 RMK AO1 SLP116 60001
T03110233 10311 20239 58007





000
SAUS44 KLCH 301655
MTRP92
METAR KP92 301653Z AUTO 12005KT 30/23 A2989 RMK AO1 SLP121 P0001
T03000228





000
SAUS44 KLCH 301555
MTRP92
METAR KP92 301553Z AUTO VRB05KT 29/23 A2989 RMK AO1 SLP122 T02940233





000
SAUS44 KLCH 301454
MTRP92
METAR KP92 301453Z AUTO VRB04KT 28/24 A2990 RMK AO1 SLP123 T02830239
51008





000
SAUS44 KLCH 301354
MTRP92
METAR KP92 301353Z AUTO 00000KT 26/24 A2989 RMK AO1 SLP121 T02610244





000
SAUS44 KLCH 301254
MTRP92
METAR KP92 301253Z AUTO 00000KT 25/23 A2989 RMK AO1 SLP120 T02500233





000
SAUS44 KLCH 301155
MTRP92
METAR KP92 301153Z AUTO 00000KT 24/23 A2987 RMK AO1 SLP116 60001
70005 T02390228 10256 20239 53005 $





000
SAUS44 KLCH 301055
MTRP92
METAR KP92 301053Z AUTO 00000KT 24/23 A2986 RMK AO1 SLP112 T02390228
$





000
SAUS44 KLCH 300955
MTRP92
METAR KP92 300953Z AUTO 00000KT 24/23 A2986 RMK AO1 SLP109 P0001
T02440228 $





000
SAUS44 KLCH 300854
MTRP92
METAR KP92 300853Z AUTO 00000KT 24/23 A2986 RMK AO1 SLP110 T02440233
$





000
SAUS44 KLCH 300754
MTRP92
METAR KP92 300753Z AUTO 00000KT 24/23 A2986 RMK AO1 SLP111 T02440233
$





000
SAUS44 KLCH 300655
MTRP92
METAR KP92 300653Z AUTO 00000KT 25/23 A2986 RMK AO1 SLP113 T02500233





000
SAUS44 KLCH 300555
MTRP92
METAR KP92 300553Z AUTO 00000KT 25/23 A2986 RMK AO1 SLP112 60001
T02500233 10261 20250 403000244 58007





000
SAUS44 KLCH 300454
MTRP92
METAR KP92 300453Z AUTO 00000KT 25/23 A2987 RMK AO1 SLP113 T02500233





000
SAUS44 KLCH 300355
MTRP92
METAR KP92 300353Z AUTO 00000KT 26/24 A2988 RMK AO1 SLP117 T02560239





000
SAUS44 KLCH 300255
MTRP92
METAR KP92 300253Z AUTO 00000KT 26/24 A2988 RMK AO1 SLP118 60001
T02560239 50007





000
SAUS44 KLCH 300155
MTRP92
METAR KP92 300153Z AUTO 00000KT 26/24 A2988 RMK AO1 SLP119 P0001
T02560239





000
SAUS44 KLCH 300055
MTRP92
METAR KP92 300053Z AUTO 13004KT 26/24 A2987 RMK AO1 SLP115 T02610244





000
SAUS44 KLCH 292355
MTRP92
METAR KP92 292353Z AUTO 00000KT 26/24 A2986 RMK AO1 SLP111 60002
T02610239 10300 20250 50004





000
SAUS44 KLCH 292254
MTRP92
METAR KP92 292253Z AUTO 00000KT 25/23 A2987 RMK AO1 SLP113 P0001
T02500233





000
SAUS44 KLCH 292155
MTRP92
METAR KP92 292153Z AUTO 00000KT 29/24 A2985 RMK AO1 SLP107 T02940239





000
SAUS44 KLCH 292054
MTRP92
METAR KP92 292053Z AUTO VRB04KT 29/24 A2985 RMK AO1 SLP107 60001
T02890239





000
SAUS44 KLCH 291954
MTRP92
METAR KP92 291953Z AUTO VRB04KT 29/24 A2986 RMK AO1 SLP111 P0001
T02890244





000
SAUS44 KLCH 291855
MTRP92
METAR KP92 291853Z AUTO VRB03KT 28/24 A2987 RMK AO1 SLP115 T02830244





000
SAUS44 KLCH 291754
MTRP92
METAR KP92 291753Z AUTO 27005KT 28/24 A2989 RMK AO1 SLP122 60001
T02830239 10294 20250 58009





000
SAUS44 KLCH 291654
MTRP92
METAR KP92 291653Z AUTO VRB05KT 29/25 A2991 RMK AO1 SLP128 T02890250





000
SAUS44 KLCH 291555
MTRP92
METAR KP92 291553Z AUTO 13005KT 27/24 A2992 RMK AO1 SLP132 T02720239





000
SAUS44 KLCH 291455
MTRP92
METAR KP92 291453Z AUTO 09003KT 26/24 A2992 RMK AO1 SLP132 P0001
60001 T02610239 51008





000
SAUS44 KLCH 291355
MTRP92
METAR KP92 291353Z AUTO 00000KT 26/24 A2992 RMK AO1 SLP130 T02560239





000
SAUS44 KLCH 291254
MTRP92
METAR KP92 291253Z AUTO 00000KT 25/24 A2991 RMK AO1 SLP127 T02500239





    US Dept of Commerce
    National Oceanic and Atmospheric Administration
    National Weather Service
    1325 East West Highway
    Silver Spring, MD 20910
    Page Author: NWS Internet Services Team
Disclaimer
Information Quality
Credits
Glossary
Privacy Policy
Freedom of Information Act (FOIA)
About Us
Career Opportunities